sensor_id;sensor_type;location;lat;lon;timestamp;P1;durP1;ratioP1;P2;durP2;ratioP2
21917;SDS011;11123;49.882;8.662;2022-09-03T00:00:20;1.70;;;0.95;;
21917;SDS011;11123;49.882;8.662;2022-09-03T00:02:52;1.50;;;0.68;;
21917;SDS011;11123;49.882;8.662;2022-09-03T00:05:30;2.20;;;0.70;;
21917;SDS011;11123;49.882;8.662;2022-09-03T00:08:05;7.60;;;0.90;;
21917;SDS011;11123;49.882;8.662;2022-09-03T00:10:41;2.08;;;0.80;;
21917;SDS011;11123;49.882;8.662;2022-09-03T00:13:14;1.95;;;0.70;;
21917;SDS011;11123;49.882;8.662;2022-09-03T00:15:46;2.83;;;0.80;;
21917;SDS011;11123;49.882;8.662;2022-09-03T00:18:17;3.28;;;0.90;;
21917;SDS011;11123;49.882;8.662;2022-09-03T00:20:51;2.28;;;0.88;;
21917;SDS011;11123;49.882;8.662;2022-09-03T00:23:26;1.65;;;0.65;;
21917;SDS011;11123;49.882;8.662;2022-09-03T00:25:57;4.20;;;1.77;;
21917;SDS011;11123;49.882;8.662;2022-09-03T00:28:32;4.55;;;0.80;;
21917;SDS011;11123;49.882;8.662;2022-09-03T00:31:06;1.55;;;0.70;;
21917;SDS011;11123;49.882;8.662;2022-09-03T00:33:40;2.72;;;0.82;;
21917;SDS011;11123;49.882;8.662;2022-09-03T00:36:14;1.63;;;0.70;;
21917;SDS011;11123;49.882;8.662;2022-09-03T00:38:45;3.08;;;0.77;;
21917;SDS011;11123;49.882;8.662;2022-09-03T00:41:17;2.22;;;0.80;;
21917;SDS011;11123;49.882;8.662;2022-09-03T00:44:01;2.13;;;0.80;;
21917;SDS011;11123;49.882;8.662;2022-09-03T00:46:48;3.30;;;0.70;;
21917;SDS011;11123;49.882;8.662;2022-09-03T00:49:24;2.78;;;0.77;;
21917;SDS011;11123;49.882;8.662;2022-09-03T00:52:06;1.35;;;0.60;;
21917;SDS011;11123;49.882;8.662;2022-09-03T00:54:50;1.80;;;0.82;;
21917;SDS011;11123;49.882;8.662;2022-09-03T00:57:28;2.22;;;0.80;;
21917;SDS011;11123;49.882;8.662;2022-09-03T01:00:06;3.42;;;0.80;;
21917;SDS011;11123;49.882;8.662;2022-09-03T01:02:43;2.05;;;0.82;;
21917;SDS011;11123;49.882;8.662;2022-09-03T01:08:18;1.75;;;0.70;;
21917;SDS011;11123;49.882;8.662;2022-09-03T01:11:01;2.80;;;1.00;;
21917;SDS011;11123;49.882;8.662;2022-09-03T01:13:38;2.42;;;0.90;;
21917;SDS011;11123;49.882;8.662;2022-09-03T01:16:12;1.75;;;0.73;;
21917;SDS011;11123;49.882;8.662;2022-09-03T01:18:50;2.22;;;0.60;;
21917;SDS011;11123;49.882;8.662;2022-09-03T01:21:39;1.45;;;0.60;;
21917;SDS011;11123;49.882;8.662;2022-09-03T01:24:32;2.70;;;0.73;;
21917;SDS011;11123;49.882;8.662;2022-09-03T01:27:17;2.72;;;0.85;;
21917;SDS011;11123;49.882;8.662;2022-09-03T01:30:02;3.10;;;0.63;;
21917;SDS011;11123;49.882;8.662;2022-09-03T01:32:35;2.05;;;0.80;;
21917;SDS011;11123;49.882;8.662;2022-09-03T01:35:13;2.97;;;0.80;;
21917;SDS011;11123;49.882;8.662;2022-09-03T01:37:56;1.40;;;0.70;;
21917;SDS011;11123;49.882;8.662;2022-09-03T01:40:34;3.83;;;0.90;;
21917;SDS011;11123;49.882;8.662;2022-09-03T01:43:14;1.85;;;0.70;;
21917;SDS011;11123;49.882;8.662;2022-09-03T01:46:02;1.80;;;0.70;;
21917;SDS011;11123;49.882;8.662;2022-09-03T01:48:42;1.83;;;0.60;;
21917;SDS011;11123;49.882;8.662;2022-09-03T01:51:17;2.72;;;0.80;;
21917;SDS011;11123;49.882;8.662;2022-09-03T01:54:05;2.78;;;0.73;;
21917;SDS011;11123;49.882;8.662;2022-09-03T02:00:04;2.03;;;0.70;;
21917;SDS011;11123;49.882;8.662;2022-09-03T02:02:40;1.73;;;0.70;;
21917;SDS011;11123;49.882;8.662;2022-09-03T02:05:11;4.82;;;0.80;;
21917;SDS011;11123;49.882;8.662;2022-09-03T02:07:42;2.65;;;0.80;;
21917;SDS011;11123;49.882;8.662;2022-09-03T02:10:13;1.90;;;0.75;;
21917;SDS011;11123;49.882;8.662;2022-09-03T02:12:44;1.80;;;0.70;;
21917;SDS011;11123;49.882;8.662;2022-09-03T02:15:16;3.75;;;0.60;;
21917;SDS011;11123;49.882;8.662;2022-09-03T02:17:48;1.48;;;0.60;;
21917;SDS011;11123;49.882;8.662;2022-09-03T02:20:23;2.97;;;0.80;;
21917;SDS011;11123;49.882;8.662;2022-09-03T02:22:54;1.83;;;0.80;;
21917;SDS011;11123;49.882;8.662;2022-09-03T02:25:27;3.58;;;0.88;;
21917;SDS011;11123;49.882;8.662;2022-09-03T02:27:59;2.83;;;0.80;;
21917;SDS011;11123;49.882;8.662;2022-09-03T02:30:28;2.97;;;0.90;;
21917;SDS011;11123;49.882;8.662;2022-09-03T02:32:59;3.38;;;0.90;;
21917;SDS011;11123;49.882;8.662;2022-09-03T02:35:27;2.25;;;0.77;;
21917;SDS011;11123;49.882;8.662;2022-09-03T02:37:56;2.40;;;0.63;;
21917;SDS011;11123;49.882;8.662;2022-09-03T02:40:24;2.00;;;0.80;;
21917;SDS011;11123;49.882;8.662;2022-09-03T02:42:53;3.00;;;0.80;;
21917;SDS011;11123;49.882;8.662;2022-09-03T02:45:23;1.52;;;0.68;;
21917;SDS011;11123;49.882;8.662;2022-09-03T02:47:55;5.65;;;0.70;;
21917;SDS011;11123;49.882;8.662;2022-09-03T02:50:27;3.05;;;0.90;;
21917;SDS011;11123;49.882;8.662;2022-09-03T02:52:56;2.55;;;0.95;;
21917;SDS011;11123;49.882;8.662;2022-09-03T02:55:26;2.67;;;1.00;;
21917;SDS011;11123;49.882;8.662;2022-09-03T02:57:54;2.42;;;0.85;;
21917;SDS011;11123;49.882;8.662;2022-09-03T03:00:23;1.90;;;0.70;;
21917;SDS011;11123;49.882;8.662;2022-09-03T03:02:51;2.88;;;0.95;;
21917;SDS011;11123;49.882;8.662;2022-09-03T03:05:20;4.43;;;0.80;;
21917;SDS011;11123;49.882;8.662;2022-09-03T03:07:57;5.55;;;0.80;;
21917;SDS011;11123;49.882;8.662;2022-09-03T03:10:26;3.55;;;0.80;;
21917;SDS011;11123;49.882;8.662;2022-09-03T03:12:55;1.80;;;0.60;;
21917;SDS011;11123;49.882;8.662;2022-09-03T03:15:23;2.10;;;0.60;;
21917;SDS011;11123;49.882;8.662;2022-09-03T03:17:51;2.65;;;0.93;;
21917;SDS011;11123;49.882;8.662;2022-09-03T03:20:23;1.70;;;0.60;;
21917;SDS011;11123;49.882;8.662;2022-09-03T03:22:51;1.63;;;0.70;;
21917;SDS011;11123;49.882;8.662;2022-09-03T03:25:21;2.67;;;0.90;;
21917;SDS011;11123;49.882;8.662;2022-09-03T03:27:49;1.50;;;0.73;;
21917;SDS011;11123;49.882;8.662;2022-09-03T03:30:18;1.27;;;0.65;;
21917;SDS011;11123;49.882;8.662;2022-09-03T03:32:46;3.63;;;0.82;;
21917;SDS011;11123;49.882;8.662;2022-09-03T03:35:14;2.22;;;0.80;;
21917;SDS011;11123;49.882;8.662;2022-09-03T03:37:43;2.05;;;0.85;;
21917;SDS011;11123;49.882;8.662;2022-09-03T03:40:11;2.13;;;0.73;;
21917;SDS011;11123;49.882;8.662;2022-09-03T03:42:41;2.70;;;0.77;;
21917;SDS011;11123;49.882;8.662;2022-09-03T03:45:10;1.85;;;0.63;;
21917;SDS011;11123;49.882;8.662;2022-09-03T03:47:38;2.85;;;0.90;;
21917;SDS011;11123;49.882;8.662;2022-09-03T03:50:07;2.40;;;0.98;;
21917;SDS011;11123;49.882;8.662;2022-09-03T03:52:35;3.90;;;1.00;;
21917;SDS011;11123;49.882;8.662;2022-09-03T03:55:04;3.63;;;0.90;;
21917;SDS011;11123;49.882;8.662;2022-09-03T03:57:33;1.65;;;0.60;;
21917;SDS011;11123;49.882;8.662;2022-09-03T04:00:04;3.85;;;0.80;;
21917;SDS011;11123;49.882;8.662;2022-09-03T04:02:39;2.17;;;0.70;;
21917;SDS011;11123;49.882;8.662;2022-09-03T04:05:08;1.92;;;0.80;;
21917;SDS011;11123;49.882;8.662;2022-09-03T04:07:37;2.40;;;0.90;;
21917;SDS011;11123;49.882;8.662;2022-09-03T04:10:05;4.03;;;0.90;;
21917;SDS011;11123;49.882;8.662;2022-09-03T04:12:35;1.80;;;0.70;;
21917;SDS011;11123;49.882;8.662;2022-09-03T04:15:05;3.75;;;0.85;;
21917;SDS011;11123;49.882;8.662;2022-09-03T04:17:34;3.58;;;0.70;;
21917;SDS011;11123;49.882;8.662;2022-09-03T04:20:02;1.90;;;0.80;;
21917;SDS011;11123;49.882;8.662;2022-09-03T04:22:31;3.67;;;0.77;;
21917;SDS011;11123;49.882;8.662;2022-09-03T04:24:59;2.00;;;0.70;;
21917;SDS011;11123;49.882;8.662;2022-09-03T04:27:27;5.25;;;1.00;;
21917;SDS011;11123;49.882;8.662;2022-09-03T04:29:56;5.57;;;0.80;;
21917;SDS011;11123;49.882;8.662;2022-09-03T04:32:28;4.13;;;0.90;;
21917;SDS011;11123;49.882;8.662;2022-09-03T04:35:18;1.65;;;0.80;;
21917;SDS011;11123;49.882;8.662;2022-09-03T04:37:46;1.95;;;0.68;;
21917;SDS011;11123;49.882;8.662;2022-09-03T04:40:15;2.42;;;0.63;;
21917;SDS011;11123;49.882;8.662;2022-09-03T04:42:44;2.08;;;0.88;;
21917;SDS011;11123;49.882;8.662;2022-09-03T04:45:12;3.00;;;0.90;;
21917;SDS011;11123;49.882;8.662;2022-09-03T04:47:48;4.18;;;0.80;;
21917;SDS011;11123;49.882;8.662;2022-09-03T04:50:23;3.45;;;1.05;;
21917;SDS011;11123;49.882;8.662;2022-09-03T04:52:58;2.38;;;0.95;;
21917;SDS011;11123;49.882;8.662;2022-09-03T04:55:33;2.30;;;1.00;;
21917;SDS011;11123;49.882;8.662;2022-09-03T04:58:02;2.38;;;0.90;;
21917;SDS011;11123;49.882;8.662;2022-09-03T05:00:34;1.92;;;0.70;;
21917;SDS011;11123;49.882;8.662;2022-09-03T05:03:04;1.95;;;0.80;;
21917;SDS011;11123;49.882;8.662;2022-09-03T05:05:32;2.40;;;0.80;;
21917;SDS011;11123;49.882;8.662;2022-09-03T05:08:01;1.05;;;0.70;;
21917;SDS011;11123;49.882;8.662;2022-09-03T05:10:30;1.80;;;0.82;;
21917;SDS011;11123;49.882;8.662;2022-09-03T05:12:59;2.58;;;0.82;;
21917;SDS011;11123;49.882;8.662;2022-09-03T05:15:29;2.60;;;0.95;;
21917;SDS011;11123;49.882;8.662;2022-09-03T05:17:58;1.92;;;0.77;;
21917;SDS011;11123;49.882;8.662;2022-09-03T05:20:29;5.32;;;1.10;;
21917;SDS011;11123;49.882;8.662;2022-09-03T05:23:00;3.42;;;1.17;;
21917;SDS011;11123;49.882;8.662;2022-09-03T05:25:29;5.07;;;0.93;;
21917;SDS011;11123;49.882;8.662;2022-09-03T05:27:58;1.67;;;0.80;;
21917;SDS011;11123;49.882;8.662;2022-09-03T05:30:27;2.25;;;0.93;;
21917;SDS011;11123;49.882;8.662;2022-09-03T05:32:55;4.63;;;0.93;;
21917;SDS011;11123;49.882;8.662;2022-09-03T05:35:24;2.65;;;1.00;;
21917;SDS011;11123;49.882;8.662;2022-09-03T05:37:57;2.25;;;0.80;;
21917;SDS011;11123;49.882;8.662;2022-09-03T05:40:26;1.50;;;0.80;;
21917;SDS011;11123;49.882;8.662;2022-09-03T05:42:55;1.58;;;0.82;;
21917;SDS011;11123;49.882;8.662;2022-09-03T05:45:25;2.90;;;0.88;;
21917;SDS011;11123;49.882;8.662;2022-09-03T05:47:53;3.20;;;0.95;;
21917;SDS011;11123;49.882;8.662;2022-09-03T05:50:22;1.88;;;1.00;;
21917;SDS011;11123;49.882;8.662;2022-09-03T05:52:50;4.05;;;0.90;;
21917;SDS011;11123;49.882;8.662;2022-09-03T05:55:19;2.88;;;0.90;;
21917;SDS011;11123;49.882;8.662;2022-09-03T05:57:50;2.45;;;1.10;;
21917;SDS011;11123;49.882;8.662;2022-09-03T06:00:20;2.83;;;0.95;;
21917;SDS011;11123;49.882;8.662;2022-09-03T06:02:49;1.67;;;0.80;;
21917;SDS011;11123;49.882;8.662;2022-09-03T06:05:18;2.25;;;0.90;;
21917;SDS011;11123;49.882;8.662;2022-09-03T06:07:47;2.53;;;0.90;;
21917;SDS011;11123;49.882;8.662;2022-09-03T06:10:16;2.35;;;0.80;;
21917;SDS011;11123;49.882;8.662;2022-09-03T06:12:52;2.88;;;1.00;;
21917;SDS011;11123;49.882;8.662;2022-09-03T06:15:21;2.17;;;0.90;;
21917;SDS011;11123;49.882;8.662;2022-09-03T06:17:50;4.75;;;1.13;;
21917;SDS011;11123;49.882;8.662;2022-09-03T06:20:18;2.55;;;1.10;;
21917;SDS011;11123;49.882;8.662;2022-09-03T06:22:47;3.90;;;1.10;;
21917;SDS011;11123;49.882;8.662;2022-09-03T06:25:18;7.85;;;1.40;;
21917;SDS011;11123;49.882;8.662;2022-09-03T06:27:48;2.88;;;1.33;;
21917;SDS011;11123;49.882;8.662;2022-09-03T06:30:18;2.42;;;1.30;;
21917;SDS011;11123;49.882;8.662;2022-09-03T06:32:48;3.55;;;1.50;;
21917;SDS011;11123;49.882;8.662;2022-09-03T06:35:17;2.63;;;1.30;;
21917;SDS011;11123;49.882;8.662;2022-09-03T06:37:49;2.75;;;1.40;;
21917;SDS011;11123;49.882;8.662;2022-09-03T06:40:17;7.00;;;1.40;;
21917;SDS011;11123;49.882;8.662;2022-09-03T06:42:54;3.95;;;1.70;;
21917;SDS011;11123;49.882;8.662;2022-09-03T06:45:27;2.85;;;1.58;;
21917;SDS011;11123;49.882;8.662;2022-09-03T06:47:57;3.30;;;1.40;;
21917;SDS011;11123;49.882;8.662;2022-09-03T06:50:26;3.40;;;1.20;;
21917;SDS011;11123;49.882;8.662;2022-09-03T06:53:00;2.28;;;1.27;;
21917;SDS011;11123;49.882;8.662;2022-09-03T06:55:28;4.05;;;1.50;;
21917;SDS011;11123;49.882;8.662;2022-09-03T06:57:57;5.80;;;1.55;;
21917;SDS011;11123;49.882;8.662;2022-09-03T07:00:29;4.28;;;1.30;;
21917;SDS011;11123;49.882;8.662;2022-09-03T07:02:58;5.22;;;1.30;;
21917;SDS011;11123;49.882;8.662;2022-09-03T07:05:28;4.07;;;1.40;;
21917;SDS011;11123;49.882;8.662;2022-09-03T07:07:57;2.38;;;1.40;;
21917;SDS011;11123;49.882;8.662;2022-09-03T07:10:26;4.18;;;1.60;;
21917;SDS011;11123;49.882;8.662;2022-09-03T07:13:03;3.05;;;1.58;;
21917;SDS011;11123;49.882;8.662;2022-09-03T07:15:34;5.95;;;1.80;;
21917;SDS011;11123;49.882;8.662;2022-09-03T07:18:02;3.53;;;1.73;;
21917;SDS011;11123;49.882;8.662;2022-09-03T07:20:31;4.40;;;1.30;;
21917;SDS011;11123;49.882;8.662;2022-09-03T07:23:00;2.85;;;1.50;;
21917;SDS011;11123;49.882;8.662;2022-09-03T07:25:28;3.88;;;1.45;;
21917;SDS011;11123;49.882;8.662;2022-09-03T07:27:57;4.60;;;1.75;;
21917;SDS011;11123;49.882;8.662;2022-09-03T07:30:26;2.78;;;1.60;;
21917;SDS011;11123;49.882;8.662;2022-09-03T07:32:56;4.57;;;1.67;;
21917;SDS011;11123;49.882;8.662;2022-09-03T07:35:27;5.10;;;1.83;;
21917;SDS011;11123;49.882;8.662;2022-09-03T07:37:56;4.80;;;1.60;;
21917;SDS011;11123;49.882;8.662;2022-09-03T07:40:24;5.80;;;1.95;;
21917;SDS011;11123;49.882;8.662;2022-09-03T07:42:55;3.95;;;1.65;;
21917;SDS011;11123;49.882;8.662;2022-09-03T07:45:30;3.90;;;1.73;;
21917;SDS011;11123;49.882;8.662;2022-09-03T07:47:59;3.53;;;2.00;;
21917;SDS011;11123;49.882;8.662;2022-09-03T07:50:29;5.53;;;1.80;;
21917;SDS011;11123;49.882;8.662;2022-09-03T07:53:03;6.72;;;1.73;;
21917;SDS011;11123;49.882;8.662;2022-09-03T07:55:31;10.95;;;4.68;;
21917;SDS011;11123;49.882;8.662;2022-09-03T07:58:01;5.63;;;2.15;;
21917;SDS011;11123;49.882;8.662;2022-09-03T08:00:29;5.18;;;2.55;;
21917;SDS011;11123;49.882;8.662;2022-09-03T08:03:01;3.83;;;1.90;;
21917;SDS011;11123;49.882;8.662;2022-09-03T08:05:32;4.90;;;2.40;;
21917;SDS011;11123;49.882;8.662;2022-09-03T08:08:02;7.15;;;2.97;;
21917;SDS011;11123;49.882;8.662;2022-09-03T08:10:33;5.43;;;2.35;;
21917;SDS011;11123;49.882;8.662;2022-09-03T08:13:04;5.38;;;2.65;;
21917;SDS011;11123;49.882;8.662;2022-09-03T08:15:32;5.45;;;2.50;;
21917;SDS011;11123;49.882;8.662;2022-09-03T08:18:04;4.32;;;2.33;;
21917;SDS011;11123;49.882;8.662;2022-09-03T08:20:32;5.22;;;2.30;;
21917;SDS011;11123;49.882;8.662;2022-09-03T08:23:00;12.90;;;2.47;;
21917;SDS011;11123;49.882;8.662;2022-09-03T08:25:29;5.25;;;2.58;;
21917;SDS011;11123;49.882;8.662;2022-09-03T08:27:58;5.43;;;2.38;;
21917;SDS011;11123;49.882;8.662;2022-09-03T08:30:26;4.00;;;2.30;;
21917;SDS011;11123;49.882;8.662;2022-09-03T08:32:55;6.20;;;2.22;;
21917;SDS011;11123;49.882;8.662;2022-09-03T08:35:25;4.82;;;2.17;;
21917;SDS011;11123;49.882;8.662;2022-09-03T08:37:55;4.28;;;1.98;;
21917;SDS011;11123;49.882;8.662;2022-09-03T08:40:27;4.97;;;2.35;;
21917;SDS011;11123;49.882;8.662;2022-09-03T08:42:57;8.40;;;2.35;;
21917;SDS011;11123;49.882;8.662;2022-09-03T08:45:34;4.80;;;2.30;;
21917;SDS011;11123;49.882;8.662;2022-09-03T08:48:04;4.28;;;2.30;;
21917;SDS011;11123;49.882;8.662;2022-09-03T08:50:39;4.35;;;2.00;;
21917;SDS011;11123;49.882;8.662;2022-09-03T08:53:13;4.32;;;2.38;;
21917;SDS011;11123;49.882;8.662;2022-09-03T08:55:49;4.10;;;1.95;;
21917;SDS011;11123;49.882;8.662;2022-09-03T08:58:19;4.18;;;2.13;;
21917;SDS011;11123;49.882;8.662;2022-09-03T09:00:50;3.70;;;2.40;;
21917;SDS011;11123;49.882;8.662;2022-09-03T09:03:31;3.25;;;1.98;;
21917;SDS011;11123;49.882;8.662;2022-09-03T09:06:07;3.45;;;1.80;;
21917;SDS011;11123;49.882;8.662;2022-09-03T09:08:45;4.22;;;2.20;;
21917;SDS011;11123;49.882;8.662;2022-09-03T09:11:25;2.92;;;1.88;;
21917;SDS011;11123;49.882;8.662;2022-09-03T09:14:07;3.58;;;2.10;;
21917;SDS011;11123;49.882;8.662;2022-09-03T09:16:43;3.58;;;2.15;;
21917;SDS011;11123;49.882;8.662;2022-09-03T09:19:20;6.15;;;2.10;;
21917;SDS011;11123;49.882;8.662;2022-09-03T09:22:06;4.63;;;1.90;;
21917;SDS011;11123;49.882;8.662;2022-09-03T09:24:45;3.28;;;1.85;;
21917;SDS011;11123;49.882;8.662;2022-09-03T09:27:15;5.57;;;2.35;;
21917;SDS011;11123;49.882;8.662;2022-09-03T09:29:45;5.32;;;2.08;;
21917;SDS011;11123;49.882;8.662;2022-09-03T09:32:18;4.35;;;2.20;;
21917;SDS011;11123;49.882;8.662;2022-09-03T09:34:47;3.17;;;2.00;;
21917;SDS011;11123;49.882;8.662;2022-09-03T09:37:19;4.00;;;2.10;;
21917;SDS011;11123;49.882;8.662;2022-09-03T09:39:54;3.95;;;1.80;;
21917;SDS011;11123;49.882;8.662;2022-09-03T09:42:24;3.20;;;1.75;;
21917;SDS011;11123;49.882;8.662;2022-09-03T09:44:55;3.60;;;1.80;;
21917;SDS011;11123;49.882;8.662;2022-09-03T09:47:24;4.43;;;2.00;;
21917;SDS011;11123;49.882;8.662;2022-09-03T09:49:56;2.55;;;1.50;;
21917;SDS011;11123;49.882;8.662;2022-09-03T09:52:28;3.63;;;1.90;;
21917;SDS011;11123;49.882;8.662;2022-09-03T09:55:05;2.85;;;1.75;;
21917;SDS011;11123;49.882;8.662;2022-09-03T09:57:34;4.18;;;1.90;;
21917;SDS011;11123;49.882;8.662;2022-09-03T10:00:05;3.55;;;1.92;;
21917;SDS011;11123;49.882;8.662;2022-09-03T10:02:38;3.95;;;1.70;;
21917;SDS011;11123;49.882;8.662;2022-09-03T10:05:14;4.93;;;1.85;;
21917;SDS011;11123;49.882;8.662;2022-09-03T10:07:54;6.00;;;1.77;;
21917;SDS011;11123;49.882;8.662;2022-09-03T10:10:25;3.63;;;2.00;;
21917;SDS011;11123;49.882;8.662;2022-09-03T10:12:58;7.28;;;2.50;;
21917;SDS011;11123;49.882;8.662;2022-09-03T10:15:32;5.53;;;1.95;;
21917;SDS011;11123;49.882;8.662;2022-09-03T10:18:08;3.47;;;1.60;;
21917;SDS011;11123;49.882;8.662;2022-09-03T10:20:44;2.90;;;1.70;;
21917;SDS011;11123;49.882;8.662;2022-09-03T10:23:19;3.38;;;1.67;;
21917;SDS011;11123;49.882;8.662;2022-09-03T10:25:54;3.15;;;2.00;;
21917;SDS011;11123;49.882;8.662;2022-09-03T10:28:33;3.22;;;1.70;;
21917;SDS011;11123;49.882;8.662;2022-09-03T10:34:05;3.92;;;1.90;;
21917;SDS011;11123;49.882;8.662;2022-09-03T10:36:40;3.65;;;1.90;;
21917;SDS011;11123;49.882;8.662;2022-09-03T10:39:19;5.40;;;1.83;;
21917;SDS011;11123;49.882;8.662;2022-09-03T10:41:53;3.85;;;2.00;;
21917;SDS011;11123;49.882;8.662;2022-09-03T10:44:42;3.63;;;1.80;;
21917;SDS011;11123;49.882;8.662;2022-09-03T10:47:27;3.55;;;1.92;;
21917;SDS011;11123;49.882;8.662;2022-09-03T10:50:09;3.00;;;1.83;;
21917;SDS011;11123;49.882;8.662;2022-09-03T10:52:48;3.22;;;1.80;;
21917;SDS011;11123;49.882;8.662;2022-09-03T10:55:39;3.78;;;2.00;;
21917;SDS011;11123;49.882;8.662;2022-09-03T11:01:09;3.55;;;2.05;;
21917;SDS011;11123;49.882;8.662;2022-09-03T11:03:48;3.88;;;1.70;;
21917;SDS011;11123;49.882;8.662;2022-09-03T11:06:23;5.13;;;2.03;;
21917;SDS011;11123;49.882;8.662;2022-09-03T11:08:55;2.45;;;1.60;;
21917;SDS011;11123;49.882;8.662;2022-09-03T11:11:34;3.47;;;1.75;;
21917;SDS011;11123;49.882;8.662;2022-09-03T11:14:07;3.95;;;1.70;;
21917;SDS011;11123;49.882;8.662;2022-09-03T11:16:37;3.38;;;2.08;;
21917;SDS011;11123;49.882;8.662;2022-09-03T11:19:11;3.60;;;2.00;;
21917;SDS011;11123;49.882;8.662;2022-09-03T11:21:43;3.70;;;1.80;;
21917;SDS011;11123;49.882;8.662;2022-09-03T11:24:15;4.03;;;1.67;;
21917;SDS011;11123;49.882;8.662;2022-09-03T11:26:49;3.15;;;1.70;;
21917;SDS011;11123;49.882;8.662;2022-09-03T11:29:24;3.13;;;1.80;;
21917;SDS011;11123;49.882;8.662;2022-09-03T11:32:00;4.50;;;1.67;;
21917;SDS011;11123;49.882;8.662;2022-09-03T11:34:43;4.10;;;1.90;;
21917;SDS011;11123;49.882;8.662;2022-09-03T11:37:17;4.97;;;1.85;;
21917;SDS011;11123;49.882;8.662;2022-09-03T11:39:52;6.85;;;1.95;;
21917;SDS011;11123;49.882;8.662;2022-09-03T11:42:29;3.83;;;2.15;;
21917;SDS011;11123;49.882;8.662;2022-09-03T11:45:19;4.38;;;1.50;;
21917;SDS011;11123;49.882;8.662;2022-09-03T11:47:51;4.03;;;1.77;;
21917;SDS011;11123;49.882;8.662;2022-09-03T11:50:21;2.33;;;1.27;;
21917;SDS011;11123;49.882;8.662;2022-09-03T11:52:51;2.97;;;1.20;;
21917;SDS011;11123;49.882;8.662;2022-09-03T11:55:25;2.45;;;1.55;;
21917;SDS011;11123;49.882;8.662;2022-09-03T11:58:15;3.22;;;1.58;;
21917;SDS011;11123;49.882;8.662;2022-09-03T12:00:50;6.05;;;1.55;;
21917;SDS011;11123;49.882;8.662;2022-09-03T12:03:22;2.60;;;1.50;;
21917;SDS011;11123;49.882;8.662;2022-09-03T12:06:03;4.18;;;1.70;;
21917;SDS011;11123;49.882;8.662;2022-09-03T12:08:55;3.38;;;1.70;;
21917;SDS011;11123;49.882;8.662;2022-09-03T12:11:36;3.03;;;1.70;;
21917;SDS011;11123;49.882;8.662;2022-09-03T12:14:17;3.40;;;1.60;;
21917;SDS011;11123;49.882;8.662;2022-09-03T12:19:44;3.17;;;1.60;;
21917;SDS011;11123;49.882;8.662;2022-09-03T12:22:18;4.80;;;1.90;;
21917;SDS011;11123;49.882;8.662;2022-09-03T12:24:47;2.55;;;1.60;;
21917;SDS011;11123;49.882;8.662;2022-09-03T12:27:18;2.58;;;1.60;;
21917;SDS011;11123;49.882;8.662;2022-09-03T12:29:53;4.07;;;1.80;;
21917;SDS011;11123;49.882;8.662;2022-09-03T12:32:25;2.72;;;1.67;;
21917;SDS011;11123;49.882;8.662;2022-09-03T12:34:55;3.58;;;2.00;;
21917;SDS011;11123;49.882;8.662;2022-09-03T12:37:24;3.42;;;1.38;;
21917;SDS011;11123;49.882;8.662;2022-09-03T12:40:17;3.50;;;1.70;;
21917;SDS011;11123;49.882;8.662;2022-09-03T12:42:47;2.60;;;1.60;;
21917;SDS011;11123;49.882;8.662;2022-09-03T12:45:19;2.88;;;1.42;;
21917;SDS011;11123;49.882;8.662;2022-09-03T12:47:49;2.88;;;1.80;;
21917;SDS011;11123;49.882;8.662;2022-09-03T12:50:19;3.15;;;1.58;;
21917;SDS011;11123;49.882;8.662;2022-09-03T12:52:49;2.90;;;1.50;;
21917;SDS011;11123;49.882;8.662;2022-09-03T12:55:25;2.50;;;1.60;;
21917;SDS011;11123;49.882;8.662;2022-09-03T12:58:01;6.80;;;1.63;;
21917;SDS011;11123;49.882;8.662;2022-09-03T13:00:40;5.40;;;1.65;;
21917;SDS011;11123;49.882;8.662;2022-09-03T13:03:14;3.22;;;1.60;;
21917;SDS011;11123;49.882;8.662;2022-09-03T13:05:46;6.05;;;2.42;;
21917;SDS011;11123;49.882;8.662;2022-09-03T13:08:19;2.40;;;1.45;;
21917;SDS011;11123;49.882;8.662;2022-09-03T13:10:52;3.15;;;1.80;;
21917;SDS011;11123;49.882;8.662;2022-09-03T13:13:25;4.93;;;1.60;;
21917;SDS011;11123;49.882;8.662;2022-09-03T13:16:03;6.70;;;1.52;;
21917;SDS011;11123;49.882;8.662;2022-09-03T13:18:42;4.35;;;1.40;;
21917;SDS011;11123;49.882;8.662;2022-09-03T13:21:17;3.28;;;1.80;;
21917;SDS011;11123;49.882;8.662;2022-09-03T13:24:07;3.30;;;2.00;;
21917;SDS011;11123;49.882;8.662;2022-09-03T13:27:03;2.78;;;1.67;;
21917;SDS011;11123;49.882;8.662;2022-09-03T13:29:48;2.90;;;1.50;;
21917;SDS011;11123;49.882;8.662;2022-09-03T13:32:31;2.75;;;1.65;;
21917;SDS011;11123;49.882;8.662;2022-09-03T13:35:13;4.78;;;3.00;;
21917;SDS011;11123;49.882;8.662;2022-09-03T13:37:51;5.15;;;1.63;;
21917;SDS011;11123;49.882;8.662;2022-09-03T13:40:25;6.47;;;1.73;;
21917;SDS011;11123;49.882;8.662;2022-09-03T13:43:02;2.60;;;1.55;;
21917;SDS011;11123;49.882;8.662;2022-09-03T13:45:44;2.83;;;1.70;;
21917;SDS011;11123;49.882;8.662;2022-09-03T13:48:19;2.95;;;1.92;;
21917;SDS011;11123;49.882;8.662;2022-09-03T13:51:10;2.90;;;1.52;;
21917;SDS011;11123;49.882;8.662;2022-09-03T13:53:50;3.80;;;1.75;;
21917;SDS011;11123;49.882;8.662;2022-09-03T13:56:34;4.03;;;1.90;;
21917;SDS011;11123;49.882;8.662;2022-09-03T13:59:11;4.18;;;1.50;;
21917;SDS011;11123;49.882;8.662;2022-09-03T14:04:50;3.45;;;1.50;;
21917;SDS011;11123;49.882;8.662;2022-09-03T14:07:27;2.72;;;1.40;;
21917;SDS011;11123;49.882;8.662;2022-09-03T14:10:17;1.88;;;1.08;;
21917;SDS011;11123;49.882;8.662;2022-09-03T14:12:49;3.30;;;1.90;;
21917;SDS011;11123;49.882;8.662;2022-09-03T14:15:32;3.47;;;1.02;;
21917;SDS011;11123;49.882;8.662;2022-09-03T14:18:12;2.20;;;1.20;;
21917;SDS011;11123;49.882;8.662;2022-09-03T14:20:54;2.58;;;1.10;;
21917;SDS011;11123;49.882;8.662;2022-09-03T14:23:29;2.42;;;1.05;;
21917;SDS011;11123;49.882;8.662;2022-09-03T14:26:04;6.50;;;2.00;;
21917;SDS011;11123;49.882;8.662;2022-09-03T14:28:43;2.35;;;1.40;;
21917;SDS011;11123;49.882;8.662;2022-09-03T14:31:17;5.45;;;1.70;;
21917;SDS011;11123;49.882;8.662;2022-09-03T14:33:56;2.65;;;1.30;;
21917;SDS011;11123;49.882;8.662;2022-09-03T14:36:33;2.42;;;1.20;;
21917;SDS011;11123;49.882;8.662;2022-09-03T14:39:11;4.30;;;1.20;;
21917;SDS011;11123;49.882;8.662;2022-09-03T14:41:55;2.75;;;1.20;;
21917;SDS011;11123;49.882;8.662;2022-09-03T14:44:46;2.78;;;0.90;;
21917;SDS011;11123;49.882;8.662;2022-09-03T14:47:34;2.35;;;1.00;;
21917;SDS011;11123;49.882;8.662;2022-09-03T14:50:18;2.15;;;1.08;;
21917;SDS011;11123;49.882;8.662;2022-09-03T14:53:01;2.05;;;1.10;;
21917;SDS011;11123;49.882;8.662;2022-09-03T14:55:50;3.67;;;1.52;;
21917;SDS011;11123;49.882;8.662;2022-09-03T14:58:39;3.28;;;1.63;;
21917;SDS011;11123;49.882;8.662;2022-09-03T15:01:16;2.40;;;1.35;;
21917;SDS011;11123;49.882;8.662;2022-09-03T15:04:07;10.23;;;7.05;;
21917;SDS011;11123;49.882;8.662;2022-09-03T15:07:15;2.90;;;1.60;;
21917;SDS011;11123;49.882;8.662;2022-09-03T15:09:56;3.45;;;1.63;;
21917;SDS011;11123;49.882;8.662;2022-09-03T15:12:33;2.20;;;1.20;;
21917;SDS011;11123;49.882;8.662;2022-09-03T15:15:07;2.40;;;1.17;;
21917;SDS011;11123;49.882;8.662;2022-09-03T15:17:43;3.15;;;1.40;;
21917;SDS011;11123;49.882;8.662;2022-09-03T15:20:22;3.67;;;1.88;;
21917;SDS011;11123;49.882;8.662;2022-09-03T15:23:03;2.85;;;1.48;;
21917;SDS011;11123;49.882;8.662;2022-09-03T15:25:44;3.35;;;1.35;;
21917;SDS011;11123;49.882;8.662;2022-09-03T15:28:22;2.40;;;1.17;;
21917;SDS011;11123;49.882;8.662;2022-09-03T15:31:00;5.43;;;3.35;;
21917;SDS011;11123;49.882;8.662;2022-09-03T15:33:32;2.55;;;1.60;;
21917;SDS011;11123;49.882;8.662;2022-09-03T15:36:11;6.95;;;2.10;;
21917;SDS011;11123;49.882;8.662;2022-09-03T15:38:46;4.75;;;2.00;;
21917;SDS011;11123;49.882;8.662;2022-09-03T15:44:13;2.88;;;1.35;;
21917;SDS011;11123;49.882;8.662;2022-09-03T15:46:49;4.25;;;3.20;;
21917;SDS011;11123;49.882;8.662;2022-09-03T15:49:29;3.28;;;1.98;;